sensor_id;sensor_type;location;lat;lon;timestamp;temperature;humidity
10459;DHT22;5277;48.722;8.736;2023-06-10T00:01:27;15.70;99.90
10459;DHT22;5277;48.722;8.736;2023-06-10T00:03:53;15.60;99.90
10459;DHT22;5277;48.722;8.736;2023-06-10T00:06:19;15.50;99.90
10459;DHT22;5277;48.722;8.736;2023-06-10T00:08:47;15.50;99.90
10459;DHT22;5277;48.722;8.736;2023-06-10T00:11:13;15.60;99.90
10459;DHT22;5277;48.722;8.736;2023-06-10T00:13:39;15.50;99.90
10459;DHT22;5277;48.722;8.736;2023-06-10T00:16:05;15.50;99.90
10459;DHT22;5277;48.722;8.736;2023-06-10T00:18:31;15.50;99.90
10459;DHT22;5277;48.722;8.736;2023-06-10T00:20:57;15.40;99.90
10459;DHT22;5277;48.722;8.736;2023-06-10T00:23:28;15.40;99.90
10459;DHT22;5277;48.722;8.736;2023-06-10T00:25:57;15.30;99.90
10459;DHT22;5277;48.722;8.736;2023-06-10T00:28:23;15.30;99.90
10459;DHT22;5277;48.722;8.736;2023-06-10T00:30:48;15.40;99.90
10459;DHT22;5277;48.722;8.736;2023-06-10T00:33:14;15.30;99.90
10459;DHT22;5277;48.722;8.736;2023-06-10T00:35:40;15.20;99.90
10459;DHT22;5277;48.722;8.736;2023-06-10T00:38:06;15.20;99.90
10459;DHT22;5277;48.722;8.736;2023-06-10T00:40:38;15.20;99.90
10459;DHT22;5277;48.722;8.736;2023-06-10T00:43:04;15.20;99.90
10459;DHT22;5277;48.722;8.736;2023-06-10T00:45:29;15.20;99.90
10459;DHT22;5277;48.722;8.736;2023-06-10T00:47:55;15.10;99.90
10459;DHT22;5277;48.722;8.736;2023-06-10T00:50:21;15.10;99.90
10459;DHT22;5277;48.722;8.736;2023-06-10T00:52:47;15.00;99.90
10459;DHT22;5277;48.722;8.736;2023-06-10T00:55:15;15.00;99.90
10459;DHT22;5277;48.722;8.736;2023-06-10T00:57:41;15.00;99.90
10459;DHT22;5277;48.722;8.736;2023-06-10T01:00:10;15.00;99.90
10459;DHT22;5277;48.722;8.736;2023-06-10T01:02:36;14.90;99.90
10459;DHT22;5277;48.722;8.736;2023-06-10T01:05:02;14.80;99.90
10459;DHT22;5277;48.722;8.736;2023-06-10T01:07:38;14.80;99.90
10459;DHT22;5277;48.722;8.736;2023-06-10T01:10:15;14.80;99.90
10459;DHT22;5277;48.722;8.736;2023-06-10T01:12:52;14.80;99.90
10459;DHT22;5277;48.722;8.736;2023-06-10T01:15:21;14.80;99.90
10459;DHT22;5277;48.722;8.736;2023-06-10T01:18:01;14.60;99.90
10459;DHT22;5277;48.722;8.736;2023-06-10T01:20:29;14.60;99.90
10459;DHT22;5277;48.722;8.736;2023-06-10T01:23:01;14.50;99.90
10459;DHT22;5277;48.722;8.736;2023-06-10T01:25:29;14.50;99.90
10459;DHT22;5277;48.722;8.736;2023-06-10T01:30:39;14.60;99.90
10459;DHT22;5277;48.722;8.736;2023-06-10T01:33:09;14.60;99.90
10459;DHT22;5277;48.722;8.736;2023-06-10T01:35:37;14.50;99.90
10459;DHT22;5277;48.722;8.736;2023-06-10T01:38:03;14.50;99.90
10459;DHT22;5277;48.722;8.736;2023-06-10T01:40:29;14.40;99.90
10459;DHT22;5277;48.722;8.736;2023-06-10T01:42:56;14.40;99.90
10459;DHT22;5277;48.722;8.736;2023-06-10T01:45:21;14.40;99.90
10459;DHT22;5277;48.722;8.736;2023-06-10T01:47:47;14.40;99.90
10459;DHT22;5277;48.722;8.736;2023-06-10T01:50:13;14.30;99.90
10459;DHT22;5277;48.722;8.736;2023-06-10T01:52:38;14.30;99.90
10459;DHT22;5277;48.722;8.736;2023-06-10T01:55:04;14.20;99.90
10459;DHT22;5277;48.722;8.736;2023-06-10T01:57:30;14.20;99.90
10459;DHT22;5277;48.722;8.736;2023-06-10T01:59:55;14.30;99.90
10459;DHT22;5277;48.722;8.736;2023-06-10T02:02:21;14.20;99.90
10459;DHT22;5277;48.722;8.736;2023-06-10T02:04:47;14.30;99.90
10459;DHT22;5277;48.722;8.736;2023-06-10T02:07:13;14.20;99.90
10459;DHT22;5277;48.722;8.736;2023-06-10T02:09:38;14.20;99.90
10459;DHT22;5277;48.722;8.736;2023-06-10T02:12:05;14.10;99.90
10459;DHT22;5277;48.722;8.736;2023-06-10T02:14:32;14.10;99.90
10459;DHT22;5277;48.722;8.736;2023-06-10T02:16:58;14.10;99.90
10459;DHT22;5277;48.722;8.736;2023-06-10T02:19:24;14.00;99.90
10459;DHT22;5277;48.722;8.736;2023-06-10T02:21:53;14.00;99.90
10459;DHT22;5277;48.722;8.736;2023-06-10T02:24:18;14.00;99.90
10459;DHT22;5277;48.722;8.736;2023-06-10T02:26:44;13.90;99.90
10459;DHT22;5277;48.722;8.736;2023-06-10T02:29:10;13.90;99.90
10459;DHT22;5277;48.722;8.736;2023-06-10T02:31:36;13.90;99.90
10459;DHT22;5277;48.722;8.736;2023-06-10T02:34:03;13.90;99.90
10459;DHT22;5277;48.722;8.736;2023-06-10T02:36:29;14.00;99.90
10459;DHT22;5277;48.722;8.736;2023-06-10T02:38:54;13.90;99.90
10459;DHT22;5277;48.722;8.736;2023-06-10T02:41:20;13.90;99.90
10459;DHT22;5277;48.722;8.736;2023-06-10T02:43:47;13.90;99.90
10459;DHT22;5277;48.722;8.736;2023-06-10T02:46:13;14.00;99.90
10459;DHT22;5277;48.722;8.736;2023-06-10T02:48:45;13.90;99.90
10459;DHT22;5277;48.722;8.736;2023-06-10T02:51:11;13.90;99.90
10459;DHT22;5277;48.722;8.736;2023-06-10T02:53:37;13.80;99.90
10459;DHT22;5277;48.722;8.736;2023-06-10T02:56:03;13.80;99.90
10459;DHT22;5277;48.722;8.736;2023-06-10T02:58:28;13.80;99.90
10459;DHT22;5277;48.722;8.736;2023-06-10T03:00:54;13.80;99.90
10459;DHT22;5277;48.722;8.736;2023-06-10T03:03:20;13.70;99.90
10459;DHT22;5277;48.722;8.736;2023-06-10T03:05:48;13.70;99.90
10459;DHT22;5277;48.722;8.736;2023-06-10T03:08:13;13.70;99.90
10459;DHT22;5277;48.722;8.736;2023-06-10T03:10:43;13.60;99.90
10459;DHT22;5277;48.722;8.736;2023-06-10T03:13:09;13.60;99.90
10459;DHT22;5277;48.722;8.736;2023-06-10T03:15:35;13.60;99.90
10459;DHT22;5277;48.722;8.736;2023-06-10T03:18:01;13.50;99.90
10459;DHT22;5277;48.722;8.736;2023-06-10T03:20:28;13.60;99.90
10459;DHT22;5277;48.722;8.736;2023-06-10T03:22:54;13.50;99.90
10459;DHT22;5277;48.722;8.736;2023-06-10T03:25:20;13.50;99.90
10459;DHT22;5277;48.722;8.736;2023-06-10T03:27:46;13.50;99.90
10459;DHT22;5277;48.722;8.736;2023-06-10T03:30:13;13.50;99.90
10459;DHT22;5277;48.722;8.736;2023-06-10T03:32:38;13.50;99.90
10459;DHT22;5277;48.722;8.736;2023-06-10T03:35:04;13.50;99.90
10459;DHT22;5277;48.722;8.736;2023-06-10T03:37:30;13.50;99.90
10459;DHT22;5277;48.722;8.736;2023-06-10T03:39:56;13.40;99.90
10459;DHT22;5277;48.722;8.736;2023-06-10T03:42:21;13.30;99.90
10459;DHT22;5277;48.722;8.736;2023-06-10T03:44:47;13.20;99.90
10459;DHT22;5277;48.722;8.736;2023-06-10T03:47:12;13.30;99.90
10459;DHT22;5277;48.722;8.736;2023-06-10T03:49:38;13.30;99.90
10459;DHT22;5277;48.722;8.736;2023-06-10T03:52:06;13.30;99.90
10459;DHT22;5277;48.722;8.736;2023-06-10T03:54:31;13.30;99.90
10459;DHT22;5277;48.722;8.736;2023-06-10T03:56:57;13.30;99.90
10459;DHT22;5277;48.722;8.736;2023-06-10T03:59:23;13.30;99.90
10459;DHT22;5277;48.722;8.736;2023-06-10T04:01:48;13.30;99.90
10459;DHT22;5277;48.722;8.736;2023-06-10T04:04:14;13.30;99.90
10459;DHT22;5277;48.722;8.736;2023-06-10T04:06:43;13.30;99.90
10459;DHT22;5277;48.722;8.736;2023-06-10T04:09:10;13.30;99.90
10459;DHT22;5277;48.722;8.736;2023-06-10T04:11:36;13.30;99.90
10459;DHT22;5277;48.722;8.736;2023-06-10T04:14:02;13.30;99.90
10459;DHT22;5277;48.722;8.736;2023-06-10T04:16:28;13.30;99.90
10459;DHT22;5277;48.722;8.736;2023-06-10T04:18:54;13.30;99.90
10459;DHT22;5277;48.722;8.736;2023-06-10T04:21:20;13.40;99.90
10459;DHT22;5277;48.722;8.736;2023-06-10T04:23:45;13.40;99.90
10459;DHT22;5277;48.722;8.736;2023-06-10T04:26:11;13.40;99.90
10459;DHT22;5277;48.722;8.736;2023-06-10T04:28:37;13.30;99.90
10459;DHT22;5277;48.722;8.736;2023-06-10T04:31:03;13.30;99.90
10459;DHT22;5277;48.722;8.736;2023-06-10T04:33:30;13.40;99.90
10459;DHT22;5277;48.722;8.736;2023-06-10T04:35:55;13.30;99.90
10459;DHT22;5277;48.722;8.736;2023-06-10T04:38:21;13.40;99.90
10459;DHT22;5277;48.722;8.736;2023-06-10T04:40:46;13.40;99.90
10459;DHT22;5277;48.722;8.736;2023-06-10T04:43:12;13.40;99.90
10459;DHT22;5277;48.722;8.736;2023-06-10T04:45:38;13.40;99.90
10459;DHT22;5277;48.722;8.736;2023-06-10T04:48:04;13.40;99.90
10459;DHT22;5277;48.722;8.736;2023-06-10T04:50:30;13.40;99.90
10459;DHT22;5277;48.722;8.736;2023-06-10T04:52:58;13.30;99.90
10459;DHT22;5277;48.722;8.736;2023-06-10T04:55:24;13.40;99.90
10459;DHT22;5277;48.722;8.736;2023-06-10T04:57:50;13.40;99.90
10459;DHT22;5277;48.722;8.736;2023-06-10T05:00:16;13.40;99.90
10459;DHT22;5277;48.722;8.736;2023-06-10T05:02:42;13.40;99.90
10459;DHT22;5277;48.722;8.736;2023-06-10T05:05:08;13.40;99.90
10459;DHT22;5277;48.722;8.736;2023-06-10T05:07:33;13.40;99.90
10459;DHT22;5277;48.722;8.736;2023-06-10T05:09:59;13.40;99.90
10459;DHT22;5277;48.722;8.736;2023-06-10T05:12:26;13.40;99.90
10459;DHT22;5277;48.722;8.736;2023-06-10T05:14:51;13.50;99.90
10459;DHT22;5277;48.722;8.736;2023-06-10T05:17:17;13.60;99.90
10459;DHT22;5277;48.722;8.736;2023-06-10T05:19:42;13.60;99.90
10459;DHT22;5277;48.722;8.736;2023-06-10T05:22:08;13.70;99.90
10459;DHT22;5277;48.722;8.736;2023-06-10T05:24:34;13.70;99.90
10459;DHT22;5277;48.722;8.736;2023-06-10T05:27:00;13.90;99.90
10459;DHT22;5277;48.722;8.736;2023-06-10T05:29:25;14.00;99.90
10459;DHT22;5277;48.722;8.736;2023-06-10T05:31:51;14.20;99.90
10459;DHT22;5277;48.722;8.736;2023-06-10T05:34:17;14.40;99.90
10459;DHT22;5277;48.722;8.736;2023-06-10T05:36:42;14.70;99.90
10459;DHT22;5277;48.722;8.736;2023-06-10T05:39:09;14.90;99.90
10459;DHT22;5277;48.722;8.736;2023-06-10T05:41:35;15.10;99.90
10459;DHT22;5277;48.722;8.736;2023-06-10T05:44:01;15.30;99.90
10459;DHT22;5277;48.722;8.736;2023-06-10T05:46:26;15.50;99.90
10459;DHT22;5277;48.722;8.736;2023-06-10T05:48:52;15.60;99.90
10459;DHT22;5277;48.722;8.736;2023-06-10T05:51:18;15.70;99.90
10459;DHT22;5277;48.722;8.736;2023-06-10T05:53:43;16.00;99.90
10459;DHT22;5277;48.722;8.736;2023-06-10T05:56:12;16.10;99.90
10459;DHT22;5277;48.722;8.736;2023-06-10T05:58:37;16.30;99.90
10459;DHT22;5277;48.722;8.736;2023-06-10T06:01:03;16.50;99.90
10459;DHT22;5277;48.722;8.736;2023-06-10T06:03:28;16.60;99.90
10459;DHT22;5277;48.722;8.736;2023-06-10T06:05:54;16.90;99.90
10459;DHT22;5277;48.722;8.736;2023-06-10T06:08:20;17.10;99.90
10459;DHT22;5277;48.722;8.736;2023-06-10T06:10:45;17.40;99.90
10459;DHT22;5277;48.722;8.736;2023-06-10T06:13:13;17.60;99.90
10459;DHT22;5277;48.722;8.736;2023-06-10T06:15:38;17.90;99.90
10459;DHT22;5277;48.722;8.736;2023-06-10T06:18:04;18.10;99.90
10459;DHT22;5277;48.722;8.736;2023-06-10T06:20:29;18.40;99.90
10459;DHT22;5277;48.722;8.736;2023-06-10T06:22:55;18.70;99.50
10459;DHT22;5277;48.722;8.736;2023-06-10T06:25:20;19.00;99.30
10459;DHT22;5277;48.722;8.736;2023-06-10T06:27:46;19.10;98.90
10459;DHT22;5277;48.722;8.736;2023-06-10T06:30:12;19.40;98.30
10459;DHT22;5277;48.722;8.736;2023-06-10T06:32:38;19.50;97.90
10459;DHT22;5277;48.722;8.736;2023-06-10T06:35:03;19.80;97.90
10459;DHT22;5277;48.722;8.736;2023-06-10T06:37:31;20.10;97.20
10459;DHT22;5277;48.722;8.736;2023-06-10T06:39:57;20.30;97.20
10459;DHT22;5277;48.722;8.736;2023-06-10T06:42:23;20.50;97.10
10459;DHT22;5277;48.722;8.736;2023-06-10T06:44:48;20.80;96.90
10459;DHT22;5277;48.722;8.736;2023-06-10T06:47:14;20.90;95.90
10459;DHT22;5277;48.722;8.736;2023-06-10T06:49:40;21.20;95.40
10459;DHT22;5277;48.722;8.736;2023-06-10T06:52:06;21.40;94.90
10459;DHT22;5277;48.722;8.736;2023-06-10T06:54:31;21.60;94.30
10459;DHT22;5277;48.722;8.736;2023-06-10T06:56:57;21.70;93.70
10459;DHT22;5277;48.722;8.736;2023-06-10T06:59:22;21.90;93.60
10459;DHT22;5277;48.722;8.736;2023-06-10T07:01:49;22.00;93.70
10459;DHT22;5277;48.722;8.736;2023-06-10T07:04:15;22.30;93.20
10459;DHT22;5277;48.722;8.736;2023-06-10T07:06:41;22.40;93.00
10459;DHT22;5277;48.722;8.736;2023-06-10T07:09:10;22.60;92.60
10459;DHT22;5277;48.722;8.736;2023-06-10T07:11:35;22.80;92.10
10459;DHT22;5277;48.722;8.736;2023-06-10T07:14:01;22.90;92.00
10459;DHT22;5277;48.722;8.736;2023-06-10T07:16:26;23.10;91.30
10459;DHT22;5277;48.722;8.736;2023-06-10T07:18:55;23.30;91.50
10459;DHT22;5277;48.722;8.736;2023-06-10T07:21:20;23.50;91.70
10459;DHT22;5277;48.722;8.736;2023-06-10T07:23:47;23.70;91.50
10459;DHT22;5277;48.722;8.736;2023-06-10T07:26:13;23.80;90.60
10459;DHT22;5277;48.722;8.736;2023-06-10T07:28:42;24.00;90.10
10459;DHT22;5277;48.722;8.736;2023-06-10T07:31:08;24.10;89.20
10459;DHT22;5277;48.722;8.736;2023-06-10T07:33:33;24.40;90.20
10459;DHT22;5277;48.722;8.736;2023-06-10T07:35:59;24.50;90.10
10459;DHT22;5277;48.722;8.736;2023-06-10T07:38:25;24.80;89.00
10459;DHT22;5277;48.722;8.736;2023-06-10T07:40:51;25.00;87.60
10459;DHT22;5277;48.722;8.736;2023-06-10T07:43:17;25.10;85.10
10459;DHT22;5277;48.722;8.736;2023-06-10T07:45:43;25.20;84.40
10459;DHT22;5277;48.722;8.736;2023-06-10T07:48:09;25.40;85.30
10459;DHT22;5277;48.722;8.736;2023-06-10T07:50:35;25.50;83.20
10459;DHT22;5277;48.722;8.736;2023-06-10T07:53:01;25.70;82.00
10459;DHT22;5277;48.722;8.736;2023-06-10T07:55:26;25.70;80.90
10459;DHT22;5277;48.722;8.736;2023-06-10T07:57:53;25.80;80.90
10459;DHT22;5277;48.722;8.736;2023-06-10T08:00:19;25.90;78.70
10459;DHT22;5277;48.722;8.736;2023-06-10T08:02:45;26.00;77.10
10459;DHT22;5277;48.722;8.736;2023-06-10T08:05:10;26.00;77.80
10459;DHT22;5277;48.722;8.736;2023-06-10T08:07:36;26.00;76.00
10459;DHT22;5277;48.722;8.736;2023-06-10T08:10:03;26.10;76.20
10459;DHT22;5277;48.722;8.736;2023-06-10T08:12:29;26.20;76.10
10459;DHT22;5277;48.722;8.736;2023-06-10T08:14:55;26.20;73.50
10459;DHT22;5277;48.722;8.736;2023-06-10T08:17:21;26.30;74.60
10459;DHT22;5277;48.722;8.736;2023-06-10T08:19:47;26.40;74.20
10459;DHT22;5277;48.722;8.736;2023-06-10T08:22:12;26.50;72.70
10459;DHT22;5277;48.722;8.736;2023-06-10T08:24:38;26.50;72.80
10459;DHT22;5277;48.722;8.736;2023-06-10T08:27:04;26.70;72.20
10459;DHT22;5277;48.722;8.736;2023-06-10T08:29:31;26.80;73.40
10459;DHT22;5277;48.722;8.736;2023-06-10T08:31:57;26.90;69.60
10459;DHT22;5277;48.722;8.736;2023-06-10T08:34:23;27.00;69.70
10459;DHT22;5277;48.722;8.736;2023-06-10T08:36:48;26.80;68.70
10459;DHT22;5277;48.722;8.736;2023-06-10T08:39:18;26.90;70.20
10459;DHT22;5277;48.722;8.736;2023-06-10T08:41:49;27.10;70.60
10459;DHT22;5277;48.722;8.736;2023-06-10T08:44:22;27.30;68.10
10459;DHT22;5277;48.722;8.736;2023-06-10T08:46:51;27.40;67.60
10459;DHT22;5277;48.722;8.736;2023-06-10T08:49:20;27.60;67.90
10459;DHT22;5277;48.722;8.736;2023-06-10T08:51:55;27.70;66.60
10459;DHT22;5277;48.722;8.736;2023-06-10T08:54:26;27.60;64.60
10459;DHT22;5277;48.722;8.736;2023-06-10T08:56:54;27.60;65.40
10459;DHT22;5277;48.722;8.736;2023-06-10T08:59:21;27.60;66.90
10459;DHT22;5277;48.722;8.736;2023-06-10T09:01:47;27.60;65.10
10459;DHT22;5277;48.722;8.736;2023-06-10T09:04:13;27.60;64.20
10459;DHT22;5277;48.722;8.736;2023-06-10T09:06:40;27.50;63.80
10459;DHT22;5277;48.722;8.736;2023-06-10T09:09:07;27.60;65.20
10459;DHT22;5277;48.722;8.736;2023-06-10T09:11:33;27.70;65.00
10459;DHT22;5277;48.722;8.736;2023-06-10T09:13:58;28.00;64.90
10459;DHT22;5277;48.722;8.736;2023-06-10T09:16:25;28.10;64.40
10459;DHT22;5277;48.722;8.736;2023-06-10T09:18:51;27.90;61.20
10459;DHT22;5277;48.722;8.736;2023-06-10T09:21:24;27.90;64.50
10459;DHT22;5277;48.722;8.736;2023-06-10T09:23:50;28.10;65.40
10459;DHT22;5277;48.722;8.736;2023-06-10T09:26:16;28.40;63.90
10459;DHT22;5277;48.722;8.736;2023-06-10T09:28:49;28.60;61.80
10459;DHT22;5277;48.722;8.736;2023-06-10T09:31:17;28.70;61.40
10459;DHT22;5277;48.722;8.736;2023-06-10T09:33:47;28.40;60.80
10459;DHT22;5277;48.722;8.736;2023-06-10T09:36:22;28.40;64.00
10459;DHT22;5277;48.722;8.736;2023-06-10T09:38:49;28.40;60.80
10459;DHT22;5277;48.722;8.736;2023-06-10T09:41:16;28.60;61.10
10459;DHT22;5277;48.722;8.736;2023-06-10T09:43:44;28.60;59.50
10459;DHT22;5277;48.722;8.736;2023-06-10T09:46:20;28.90;59.50
10459;DHT22;5277;48.722;8.736;2023-06-10T09:48:47;28.70;60.00
10459;DHT22;5277;48.722;8.736;2023-06-10T09:51:16;28.50;60.60
10459;DHT22;5277;48.722;8.736;2023-06-10T09:53:48;28.60;60.00
10459;DHT22;5277;48.722;8.736;2023-06-10T09:56:15;28.40;62.60
10459;DHT22;5277;48.722;8.736;2023-06-10T09:58:41;28.50;61.50
10459;DHT22;5277;48.722;8.736;2023-06-10T10:01:10;28.80;60.50
10459;DHT22;5277;48.722;8.736;2023-06-10T10:03:47;29.10;59.60
10459;DHT22;5277;48.722;8.736;2023-06-10T10:06:14;29.10;58.90
10459;DHT22;5277;48.722;8.736;2023-06-10T10:08:40;29.10;59.10
10459;DHT22;5277;48.722;8.736;2023-06-10T10:11:06;29.10;58.50
10459;DHT22;5277;48.722;8.736;2023-06-10T10:13:34;29.20;58.60
10459;DHT22;5277;48.722;8.736;2023-06-10T10:16:04;29.20;58.60
10459;DHT22;5277;48.722;8.736;2023-06-10T10:18:31;29.70;58.20
10459;DHT22;5277;48.722;8.736;2023-06-10T10:21:01;30.00;57.00
10459;DHT22;5277;48.722;8.736;2023-06-10T10:23:34;30.40;56.50
10459;DHT22;5277;48.722;8.736;2023-06-10T10:26:00;30.60;56.50
10459;DHT22;5277;48.722;8.736;2023-06-10T10:28:41;31.10;55.50
10459;DHT22;5277;48.722;8.736;2023-06-10T10:31:12;31.60;54.40
10459;DHT22;5277;48.722;8.736;2023-06-10T10:33:53;31.50;53.30
10459;DHT22;5277;48.722;8.736;2023-06-10T10:36:20;31.50;53.40
10459;DHT22;5277;48.722;8.736;2023-06-10T10:38:45;31.50;52.90
10459;DHT22;5277;48.722;8.736;2023-06-10T10:41:13;31.60;52.60
10459;DHT22;5277;48.722;8.736;2023-06-10T10:43:39;30.80;51.80
10459;DHT22;5277;48.722;8.736;2023-06-10T10:46:16;30.50;54.70
10459;DHT22;5277;48.722;8.736;2023-06-10T10:48:43;30.60;54.70
10459;DHT22;5277;48.722;8.736;2023-06-10T10:51:09;30.60;54.20
10459;DHT22;5277;48.722;8.736;2023-06-10T10:53:39;30.50;53.90
10459;DHT22;5277;48.722;8.736;2023-06-10T10:56:06;30.70;55.50
10459;DHT22;5277;48.722;8.736;2023-06-10T10:58:33;30.90;54.00
10459;DHT22;5277;48.722;8.736;2023-06-10T11:00:58;30.80;54.90
10459;DHT22;5277;48.722;8.736;2023-06-10T11:03:28;30.90;56.10
10459;DHT22;5277;48.722;8.736;2023-06-10T11:05:57;30.80;55.10
10459;DHT22;5277;48.722;8.736;2023-06-10T11:10:57;31.00;53.60
10459;DHT22;5277;48.722;8.736;2023-06-10T11:13:23;31.50;52.50
10459;DHT22;5277;48.722;8.736;2023-06-10T11:15:50;32.30;53.60
10459;DHT22;5277;48.722;8.736;2023-06-10T11:18:26;32.60;51.00
10459;DHT22;5277;48.722;8.736;2023-06-10T11:21:00;32.80;51.20
10459;DHT22;5277;48.722;8.736;2023-06-10T11:29:26;32.10;49.00
10459;DHT22;5277;48.722;8.736;2023-06-10T11:31:44;32.60;50.60
10459;DHT22;5277;48.722;8.736;2023-06-10T11:34:12;33.30;51.20
10459;DHT22;5277;48.722;8.736;2023-06-10T11:36:40;33.60;50.40
10459;DHT22;5277;48.722;8.736;2023-06-10T11:39:08;33.80;48.50
10459;DHT22;5277;48.722;8.736;2023-06-10T11:41:35;34.20;47.50
10459;DHT22;5277;48.722;8.736;2023-06-10T11:44:07;34.00;47.70
10459;DHT22;5277;48.722;8.736;2023-06-10T11:46:33;33.50;48.30
10459;DHT22;5277;48.722;8.736;2023-06-10T11:49:00;33.50;49.40
10459;DHT22;5277;48.722;8.736;2023-06-10T11:51:27;32.90;47.90
10459;DHT22;5277;48.722;8.736;2023-06-10T11:53:54;32.30;50.10
10459;DHT22;5277;48.722;8.736;2023-06-10T11:56:27;31.70;49.60
10459;DHT22;5277;48.722;8.736;2023-06-10T11:59:02;31.60;51.00
10459;DHT22;5277;48.722;8.736;2023-06-10T12:01:47;31.60;51.20
10459;DHT22;5277;48.722;8.736;2023-06-10T12:04:14;31.30;52.10
10459;DHT22;5277;48.722;8.736;2023-06-10T12:11:41;31.40;52.20
10459;DHT22;5277;48.722;8.736;2023-06-10T12:14:07;31.90;50.30
10459;DHT22;5277;48.722;8.736;2023-06-10T12:16:33;32.60;49.80
10459;DHT22;5277;48.722;8.736;2023-06-10T12:19:03;33.30;48.90
10459;DHT22;5277;48.722;8.736;2023-06-10T12:21:33;33.10;48.10
10459;DHT22;5277;48.722;8.736;2023-06-10T12:24:10;32.60;46.80
10459;DHT22;5277;48.722;8.736;2023-06-10T12:26:41;32.30;49.70
10459;DHT22;5277;48.722;8.736;2023-06-10T12:29:22;31.90;49.50
10459;DHT22;5277;48.722;8.736;2023-06-10T12:31:55;31.70;50.50
10459;DHT22;5277;48.722;8.736;2023-06-10T12:34:31;31.90;50.80
10459;DHT22;5277;48.722;8.736;2023-06-10T12:36:57;32.70;50.10
10459;DHT22;5277;48.722;8.736;2023-06-10T12:39:23;33.10;49.20
10459;DHT22;5277;48.722;8.736;2023-06-10T12:41:49;33.20;47.60
10459;DHT22;5277;48.722;8.736;2023-06-10T12:44:16;33.30;47.50
10459;DHT22;5277;48.722;8.736;2023-06-10T12:46:42;33.00;47.40
10459;DHT22;5277;48.722;8.736;2023-06-10T12:49:07;32.50;49.90
10459;DHT22;5277;48.722;8.736;2023-06-10T12:51:33;31.90;51.00
10459;DHT22;5277;48.722;8.736;2023-06-10T12:54:00;31.40;50.30
10459;DHT22;5277;48.722;8.736;2023-06-10T12:56:25;30.90;52.00
10459;DHT22;5277;48.722;8.736;2023-06-10T12:58:51;31.00;50.80
10459;DHT22;5277;48.722;8.736;2023-06-10T13:01:16;31.10;51.40
10459;DHT22;5277;48.722;8.736;2023-06-10T13:03:42;31.00;50.40
10459;DHT22;5277;48.722;8.736;2023-06-10T13:06:08;30.80;51.10
10459;DHT22;5277;48.722;8.736;2023-06-10T13:08:33;30.50;55.10
10459;DHT22;5277;48.722;8.736;2023-06-10T13:10:59;30.20;52.10
10459;DHT22;5277;48.722;8.736;2023-06-10T13:13:24;30.10;54.30
10459;DHT22;5277;48.722;8.736;2023-06-10T13:15:51;29.90;52.30
10459;DHT22;5277;48.722;8.736;2023-06-10T13:18:17;29.70;53.20
10459;DHT22;5277;48.722;8.736;2023-06-10T13:20:45;29.70;52.90
10459;DHT22;5277;48.722;8.736;2023-06-10T13:23:10;29.60;52.70
10459;DHT22;5277;48.722;8.736;2023-06-10T13:25:36;29.40;53.60
10459;DHT22;5277;48.722;8.736;2023-06-10T13:28:02;29.20;55.00
10459;DHT22;5277;48.722;8.736;2023-06-10T13:30:28;29.00;58.30
10459;DHT22;5277;48.722;8.736;2023-06-10T13:32:53;28.80;55.20
10459;DHT22;5277;48.722;8.736;2023-06-10T13:35:19;28.60;54.20
10459;DHT22;5277;48.722;8.736;2023-06-10T13:37:44;28.50;57.70
10459;DHT22;5277;48.722;8.736;2023-06-10T13:40:18;28.30;55.00
10459;DHT22;5277;48.722;8.736;2023-06-10T13:42:45;28.20;57.90
10459;DHT22;5277;48.722;8.736;2023-06-10T13:45:16;28.10;56.00
10459;DHT22;5277;48.722;8.736;2023-06-10T13:47:42;28.10;60.40
10459;DHT22;5277;48.722;8.736;2023-06-10T13:50:08;28.20;59.00
10459;DHT22;5277;48.722;8.736;2023-06-10T13:52:40;28.10;55.50
10459;DHT22;5277;48.722;8.736;2023-06-10T13:55:05;28.20;56.80
10459;DHT22;5277;48.722;8.736;2023-06-10T13:57:31;28.20;59.00
10459;DHT22;5277;48.722;8.736;2023-06-10T13:59:57;28.10;57.10
10459;DHT22;5277;48.722;8.736;2023-06-10T14:02:22;28.30;55.30
10459;DHT22;5277;48.722;8.736;2023-06-10T14:04:48;28.30;55.90
10459;DHT22;5277;48.722;8.736;2023-06-10T14:07:14;28.20;54.30
10459;DHT22;5277;48.722;8.736;2023-06-10T14:09:40;28.20;54.80
10459;DHT22;5277;48.722;8.736;2023-06-10T14:12:06;28.10;57.00
10459;DHT22;5277;48.722;8.736;2023-06-10T14:14:32;28.10;55.30
10459;DHT22;5277;48.722;8.736;2023-06-10T14:16:58;28.00;57.60
10459;DHT22;5277;48.722;8.736;2023-06-10T14:19:24;27.80;59.00
10459;DHT22;5277;48.722;8.736;2023-06-10T14:21:50;27.60;59.40
10459;DHT22;5277;48.722;8.736;2023-06-10T14:24:16;27.40;60.40
10459;DHT22;5277;48.722;8.736;2023-06-10T14:26:41;27.20;61.80
10459;DHT22;5277;48.722;8.736;2023-06-10T14:29:07;27.00;59.30
10459;DHT22;5277;48.722;8.736;2023-06-10T14:31:34;27.00;61.00
10459;DHT22;5277;48.722;8.736;2023-06-10T14:33:59;26.80;57.80
10459;DHT22;5277;48.722;8.736;2023-06-10T14:36:25;26.80;59.80
10459;DHT22;5277;48.722;8.736;2023-06-10T14:38:50;26.70;60.30
10459;DHT22;5277;48.722;8.736;2023-06-10T14:41:16;26.70;61.60
10459;DHT22;5277;48.722;8.736;2023-06-10T14:43:42;26.50;62.10
10459;DHT22;5277;48.722;8.736;2023-06-10T14:46:07;26.40;63.20
10459;DHT22;5277;48.722;8.736;2023-06-10T14:48:33;26.40;60.80
10459;DHT22;5277;48.722;8.736;2023-06-10T14:50:59;26.30;63.30
10459;DHT22;5277;48.722;8.736;2023-06-10T14:53:24;26.20;64.20
10459;DHT22;5277;48.722;8.736;2023-06-10T14:55:50;26.10;62.50
10459;DHT22;5277;48.722;8.736;2023-06-10T14:58:15;26.10;65.60
10459;DHT22;5277;48.722;8.736;2023-06-10T15:00:41;26.10;66.70
10459;DHT22;5277;48.722;8.736;2023-06-10T15:03:06;26.20;62.10
10459;DHT22;5277;48.722;8.736;2023-06-10T15:05:32;26.10;58.60
10459;DHT22;5277;48.722;8.736;2023-06-10T15:08:00;26.10;60.60
10459;DHT22;5277;48.722;8.736;2023-06-10T15:10:25;26.10;59.90
10459;DHT22;5277;48.722;8.736;2023-06-10T15:12:51;26.00;61.20
10459;DHT22;5277;48.722;8.736;2023-06-10T15:15:24;25.90;61.90
10459;DHT22;5277;48.722;8.736;2023-06-10T15:17:51;25.80;63.40
10459;DHT22;5277;48.722;8.736;2023-06-10T15:20:19;25.90;58.30
10459;DHT22;5277;48.722;8.736;2023-06-10T15:22:45;25.90;58.70
10459;DHT22;5277;48.722;8.736;2023-06-10T15:25:11;26.00;61.10
10459;DHT22;5277;48.722;8.736;2023-06-10T15:27:36;25.90;62.30
10459;DHT22;5277;48.722;8.736;2023-06-10T15:30:02;25.90;63.00
10459;DHT22;5277;48.722;8.736;2023-06-10T15:32:28;25.80;62.40
10459;DHT22;5277;48.722;8.736;2023-06-10T15:34:54;25.80;61.20
10459;DHT22;5277;48.722;8.736;2023-06-10T15:37:27;25.90;58.20
10459;DHT22;5277;48.722;8.736;2023-06-10T15:39:53;26.00;60.70
10459;DHT22;5277;48.722;8.736;2023-06-10T15:42:18;26.00;58.40
10459;DHT22;5277;48.722;8.736;2023-06-10T15:44:47;26.10;60.10
10459;DHT22;5277;48.722;8.736;2023-06-10T15:47:13;26.10;62.30
10459;DHT22;5277;48.722;8.736;2023-06-10T15:49:38;26.20;61.20
10459;DHT22;5277;48.722;8.736;2023-06-10T15:52:04;26.20;60.40
10459;DHT22;5277;48.722;8.736;2023-06-10T15:54:30;26.20;58.50
10459;DHT22;5277;48.722;8.736;2023-06-10T15:56:56;26.20;59.50
10459;DHT22;5277;48.722;8.736;2023-06-10T15:59:25;26.20;62.30